createdAt,value
2018-06-24T00:02:24.714Z,4.17
2018-06-24T00:08:31.577Z,3.27
2018-06-24T00:11:23.188Z,3.20
2018-06-24T00:16:40.500Z,3.90
2018-06-24T00:22:19.908Z,4.37
2018-06-24T00:24:50.177Z,4.30
2018-06-24T00:27:19.421Z,3.40
2018-06-24T00:29:58.457Z,3.83
2018-06-24T00:32:34.880Z,3.98
2018-06-24T00:38:31.209Z,4.73
2018-06-24T00:46:05.721Z,3.70
2018-06-24T00:48:35.960Z,4.30
2018-06-24T00:51:14.012Z,5.30
2018-06-24T00:53:57.058Z,4.70
2018-06-24T00:56:26.421Z,5.40
2018-06-24T00:58:55.156Z,4.78
2018-06-24T01:01:23.516Z,5.00
2018-06-24T01:03:53.844Z,4.55
2018-06-24T01:06:22.772Z,5.05
2018-06-24T01:09:36.624Z,5.90
2018-06-24T01:12:06.133Z,5.10
2018-06-24T01:14:34.554Z,5.23
2018-06-24T01:17:03.372Z,5.80
2018-06-24T01:19:32.117Z,5.15
2018-06-24T01:22:00.942Z,5.17
2018-06-24T01:29:31.707Z,5.07
2018-06-24T01:32:14.583Z,4.37
2018-06-24T01:34:44.493Z,5.00
2018-06-24T01:39:55.064Z,5.87
2018-06-24T01:42:23.936Z,5.85
2018-06-24T01:47:46.020Z,5.05
2018-06-24T01:50:40.165Z,5.57
2018-06-24T01:53:08.768Z,5.10
2018-06-24T01:55:38.244Z,4.60
2018-06-24T01:58:30.967Z,4.60
2018-06-24T02:00:59.423Z,4.50
2018-06-24T02:06:38.122Z,5.10
2018-06-24T02:09:11.543Z,6.17
2018-06-24T02:20:06.817Z,5.20
2018-06-24T02:22:35.351Z,5.58
2018-06-24T02:25:04.523Z,6.03
2018-06-24T02:27:37.633Z,5.97
2018-06-24T02:30:06.515Z,5.58
2018-06-24T02:32:46.476Z,6.00
2018-06-24T02:38:21.940Z,6.77
2018-06-24T02:40:50.479Z,6.07
2018-06-24T02:43:19.512Z,5.53
2018-06-24T02:46:00.921Z,6.65
2018-06-24T02:48:29.744Z,6.80
2018-06-24T02:50:59.550Z,5.90
2018-06-24T02:53:28.489Z,5.90
2018-06-24T02:55:58.590Z,6.47
2018-06-24T02:58:27.001Z,5.60
2018-06-24T03:04:33.112Z,5.90
2018-06-24T03:07:01.768Z,6.27
2018-06-24T03:09:38.006Z,5.73
2018-06-24T03:12:07.753Z,7.23
2018-06-24T03:17:19.068Z,6.83
2018-06-24T03:22:35.276Z,6.35
2018-06-24T03:25:03.676Z,7.47
2018-06-24T03:27:40.230Z,7.35
2018-06-24T03:30:09.314Z,6.70
2018-06-24T03:32:45.061Z,6.77
2018-06-24T03:35:23.059Z,6.40
2018-06-24T03:40:35.029Z,7.27
2018-06-24T03:43:08.388Z,6.47
2018-06-24T03:45:37.247Z,5.87
2018-06-24T03:50:45.221Z,6.43
2018-06-24T03:53:24.121Z,6.63
2018-06-24T03:55:52.652Z,6.83
2018-06-24T03:58:21.996Z,6.10
2018-06-24T04:01:14.581Z,6.07
2018-06-24T04:03:43.105Z,6.60
2018-06-24T04:06:11.484Z,6.47
2018-06-24T04:08:46.030Z,6.42
2018-06-24T04:11:14.437Z,6.37
2018-06-24T04:13:44.985Z,6.07
2018-06-24T04:16:13.933Z,6.60
2018-06-24T04:18:59.399Z,6.60
2018-06-24T04:24:11.329Z,6.43
2018-06-24T04:26:46.845Z,5.20
2018-06-24T04:32:31.867Z,6.77
2018-06-24T04:35:00.311Z,5.63
2018-06-24T04:37:29.121Z,6.33
2018-06-24T04:39:57.524Z,5.80
2018-06-24T04:42:27.092Z,5.37
2018-06-24T04:44:56.410Z,5.63
2018-06-24T04:50:22.288Z,6.20
2018-06-24T04:52:51.380Z,6.20
2018-06-24T04:55:19.680Z,5.73
2018-06-24T04:58:01.924Z,6.37
2018-06-24T05:00:31.924Z,6.30
2018-06-24T05:03:07.956Z,4.70
2018-06-24T05:05:42.229Z,5.90
2018-06-24T05:13:12.864Z,6.47
2018-06-24T05:19:26.684Z,6.70
2018-06-24T05:21:56.336Z,6.43
2018-06-24T05:28:42.413Z,5.92
2018-06-24T05:31:30.570Z,5.35
2018-06-24T05:33:59.272Z,6.10
2018-06-24T05:42:13.441Z,5.07
2018-06-24T05:48:00.181Z,4.73
2018-06-24T05:56:36.384Z,4.20
2018-06-24T05:59:04.680Z,5.50
2018-06-24T06:25:54.917Z,5.53
2018-06-24T06:28:23.207Z,4.70
2018-06-24T06:35:34.606Z,4.20
2018-06-24T06:38:19.769Z,5.10
2018-06-24T06:40:48.377Z,5.67
2018-06-24T06:43:16.834Z,5.93
2018-06-24T06:49:24.778Z,5.57
2018-06-24T06:51:54.551Z,5.20
2018-06-24T06:54:23.089Z,6.17
2018-06-24T06:56:51.373Z,5.40
2018-06-24T06:59:19.868Z,5.77
2018-06-24T07:01:53.444Z,5.03
2018-06-24T07:04:21.860Z,6.33
2018-06-24T07:06:52.814Z,4.50
2018-06-24T07:09:21.176Z,4.27
2018-06-24T07:11:49.605Z,5.43
2018-06-24T07:14:19.337Z,6.10
2018-06-24T07:16:47.640Z,5.70
2018-06-24T07:19:25.861Z,5.50
2018-06-24T07:21:57.413Z,5.57
2018-06-24T07:24:26.202Z,7.03
2018-06-24T07:26:55.753Z,7.67
2018-06-24T07:29:29.583Z,6.10
2018-06-24T07:31:58.196Z,7.07
2018-06-24T07:34:29.825Z,5.97
2018-06-24T07:37:03.101Z,4.77
2018-06-24T07:39:33.680Z,6.17
2018-06-24T07:42:10.482Z,4.20
2018-06-24T07:44:38.840Z,4.27
2018-06-24T07:47:10.377Z,5.10
2018-06-24T07:49:39.125Z,4.45
2018-06-24T07:52:07.664Z,4.87
2018-06-24T07:54:36.340Z,4.62
2018-06-24T07:57:05.284Z,4.50
2018-06-24T07:59:33.997Z,4.27
2018-06-24T08:02:03.691Z,5.43
2018-06-24T08:04:33.503Z,4.45
2018-06-24T08:07:02.839Z,6.50
2018-06-24T08:09:31.292Z,3.77
2018-06-24T08:12:00.240Z,3.70
2018-06-24T08:14:29.235Z,4.63
2018-06-24T08:16:57.555Z,4.03
2018-06-24T08:19:26.794Z,4.27
2018-06-24T08:21:55.060Z,4.70
2018-06-24T08:24:23.238Z,4.53
2018-06-24T08:26:52.388Z,5.07
2018-06-24T08:29:20.516Z,4.73
2018-06-24T08:31:48.590Z,4.93
2018-06-24T08:34:16.712Z,5.10
2018-06-24T08:36:44.851Z,4.33
2018-06-24T08:39:13.042Z,4.33
2018-06-24T08:41:41.299Z,4.40
2018-06-24T08:44:16.848Z,4.30
2018-06-24T08:46:45.029Z,3.30
2018-06-24T08:49:13.160Z,3.20
2018-06-24T08:51:41.268Z,3.13
2018-06-24T08:54:14.115Z,2.87
2018-06-24T08:56:42.184Z,3.10
2018-06-24T08:59:10.334Z,3.30
2018-06-24T09:01:38.407Z,3.72
2018-06-24T09:04:06.504Z,2.10
2018-06-24T09:06:34.559Z,2.70
2018-06-24T09:09:02.813Z,4.30
2018-06-24T09:11:31.069Z,3.20
2018-06-24T09:13:59.141Z,2.17
2018-06-24T09:16:27.233Z,3.00
2018-06-24T09:18:55.339Z,2.80
2018-06-24T09:21:23.498Z,3.17
2018-06-24T09:23:51.552Z,2.60
2018-06-24T09:26:19.687Z,2.80
2018-06-24T09:28:47.751Z,2.40
2018-06-24T09:31:15.859Z,2.50
2018-06-24T09:33:43.995Z,3.17
2018-06-24T09:36:12.204Z,3.03
2018-06-24T09:38:40.291Z,2.43
2018-06-24T09:41:08.509Z,2.13
2018-06-24T09:43:36.568Z,3.10
2018-06-24T09:46:04.736Z,3.07
2018-06-24T09:48:33.407Z,3.10
2018-06-24T09:51:01.511Z,2.77
2018-06-24T09:53:29.592Z,2.53
2018-06-24T09:55:57.671Z,2.60
2018-06-24T09:58:25.756Z,3.07
2018-06-24T10:00:53.840Z,2.77
2018-06-24T10:03:21.987Z,3.57
2018-06-24T10:05:50.831Z,2.90
2018-06-24T10:08:18.948Z,3.70
2018-06-24T10:10:48.032Z,2.77
2018-06-24T10:13:16.211Z,3.33
2018-06-24T10:15:44.508Z,5.17
2018-06-24T10:18:12.608Z,3.58
2018-06-24T10:20:47.552Z,4.27
2018-06-24T10:23:15.888Z,2.80
2018-06-24T10:25:43.988Z,2.90
2018-06-24T10:28:12.126Z,3.27
2018-06-24T10:30:40.220Z,2.63
2018-06-24T10:33:08.276Z,3.00
2018-06-24T10:35:36.369Z,3.00
2018-06-24T10:38:04.903Z,2.20
2018-06-24T10:40:33.019Z,2.80
2018-06-24T10:43:01.124Z,2.23
2018-06-24T10:45:29.392Z,3.27
2018-06-24T10:47:57.552Z,2.77
2018-06-24T10:50:26.195Z,2.33
2018-06-24T10:52:54.349Z,2.40
2018-06-24T10:55:22.415Z,2.00
2018-06-24T10:57:50.535Z,2.92
2018-06-24T11:00:18.660Z,2.00
2018-06-24T11:02:46.754Z,2.80
2018-06-24T11:05:14.871Z,2.10
2018-06-24T11:07:43.252Z,2.00
2018-06-24T11:10:11.376Z,1.90
2018-06-24T11:12:39.448Z,2.12
2018-06-24T11:15:07.543Z,1.80
2018-06-24T11:17:36.040Z,1.50
2018-06-24T11:20:04.164Z,1.70
2018-06-24T11:22:32.255Z,1.70
2018-06-24T11:25:00.652Z,2.10
2018-06-24T11:27:28.728Z,1.70
2018-06-24T11:29:56.843Z,1.80
2018-06-24T11:32:25.517Z,1.80
2018-06-24T11:34:53.588Z,1.97
2018-06-24T11:37:21.818Z,2.40
2018-06-24T11:39:49.897Z,1.80
2018-06-24T11:42:18.060Z,2.00
2018-06-24T11:44:46.135Z,1.70
2018-06-24T11:47:14.285Z,2.23
2018-06-24T11:49:42.800Z,1.70
2018-06-24T11:52:11.791Z,1.77
2018-06-24T11:54:40.759Z,2.00
2018-06-24T11:57:09.167Z,2.03
2018-06-24T11:59:37.285Z,1.90
2018-06-24T12:02:06.047Z,2.00
2018-06-24T12:04:34.053Z,1.62
2018-06-24T12:07:02.172Z,3.23
2018-06-24T12:09:30.284Z,2.33
2018-06-24T12:11:58.437Z,1.77
2018-06-24T12:14:26.535Z,1.50
2018-06-24T12:16:54.657Z,1.70
2018-06-24T12:19:22.943Z,1.73
2018-06-24T12:21:51.379Z,1.70
2018-06-24T12:24:19.481Z,1.70
2018-06-24T12:26:47.581Z,1.60
2018-06-24T12:29:16.021Z,1.50
2018-06-24T12:31:44.079Z,2.03
2018-06-24T12:34:12.441Z,1.60
2018-06-24T12:36:42.789Z,1.43
2018-06-24T12:39:13.885Z,2.00
2018-06-24T12:41:41.988Z,1.70
2018-06-24T12:44:10.516Z,2.00
2018-06-24T12:46:38.823Z,2.00
2018-06-24T12:49:08.108Z,1.87
2018-06-24T12:51:37.305Z,1.83
2018-06-24T12:54:05.683Z,1.70
2018-06-24T12:56:34.087Z,2.90
2018-06-24T12:59:02.389Z,1.60
2018-06-24T13:01:30.424Z,1.80
2018-06-24T13:03:58.638Z,1.57
2018-06-24T13:06:26.812Z,3.37
2018-06-24T13:08:55.559Z,2.83
2018-06-24T13:11:23.696Z,2.10
2018-06-24T13:13:51.776Z,2.20
2018-06-24T13:16:19.849Z,2.17
2018-06-24T13:18:48.011Z,2.20
2018-06-24T13:21:16.297Z,2.10
2018-06-24T13:23:44.315Z,1.73
2018-06-24T13:26:12.424Z,1.80
2018-06-24T13:28:41.284Z,1.70
2018-06-24T13:31:10.504Z,1.70
2018-06-24T13:33:39.197Z,1.83
2018-06-24T13:36:07.729Z,2.20
2018-06-24T13:38:35.980Z,2.33
2018-06-24T13:41:04.240Z,1.77
2018-06-24T13:43:32.332Z,2.30
2018-06-24T13:46:00.695Z,1.90
2018-06-24T13:48:28.884Z,2.23
2018-06-24T13:50:57.371Z,2.17
2018-06-24T13:53:26.293Z,2.33
2018-06-24T13:55:55.040Z,2.50
2018-06-24T13:58:23.164Z,1.97
2018-06-24T14:00:51.755Z,2.42
2018-06-24T14:03:19.895Z,2.20
2018-06-24T14:05:48.020Z,1.92
2018-06-24T14:08:16.320Z,2.20
2018-06-24T14:10:44.400Z,2.30
2018-06-24T14:13:12.520Z,2.42
2018-06-24T14:15:41.770Z,2.17
2018-06-24T14:18:09.896Z,2.30
2018-06-24T14:20:37.972Z,2.00
2018-06-24T14:23:06.469Z,3.73
2018-06-24T14:25:36.208Z,3.13
2018-06-24T14:28:04.495Z,3.33
2018-06-24T14:30:32.600Z,3.57
2018-06-24T14:33:00.837Z,2.97
2018-06-24T14:35:28.945Z,2.65
2018-06-24T14:37:57.085Z,2.53
2018-06-24T14:40:25.200Z,2.07
2018-06-24T14:42:53.321Z,2.40
2018-06-24T14:45:21.393Z,2.98
2018-06-24T14:47:49.737Z,2.73
2018-06-24T14:50:17.852Z,3.60
2018-06-24T14:52:46.408Z,3.27
2018-06-24T14:55:14.501Z,2.60
2018-06-24T14:57:43.336Z,2.70
2018-06-24T15:00:11.451Z,3.03
2018-06-24T15:02:42.624Z,3.30
2018-06-24T15:05:11.819Z,3.37
2018-06-24T15:07:40.247Z,2.73
2018-06-24T15:10:08.600Z,3.40
2018-06-24T15:12:36.724Z,2.90
2018-06-24T15:15:04.832Z,3.20
2018-06-24T15:17:32.923Z,3.57
2018-06-24T15:20:01.304Z,3.27
2018-06-24T15:22:29.399Z,3.40
2018-06-24T15:24:57.526Z,2.87
2018-06-24T15:27:25.619Z,2.85
2018-06-24T15:29:53.699Z,3.53
2018-06-24T15:32:21.780Z,3.30
2018-06-24T15:34:50.296Z,3.30
2018-06-24T15:37:18.391Z,4.37
2018-06-24T15:39:46.561Z,3.58
2018-06-24T15:42:15.153Z,3.43
2018-06-24T15:44:43.599Z,4.13
2018-06-24T15:47:11.734Z,3.55
2018-06-24T15:49:39.835Z,3.27
2018-06-24T15:52:08.298Z,3.55
2018-06-24T15:54:36.383Z,3.93
2018-06-24T15:57:04.585Z,3.60
2018-06-24T15:59:33.017Z,3.13
2018-06-24T16:02:01.189Z,3.00
2018-06-24T16:04:29.260Z,3.60
2018-06-24T16:09:50.601Z,3.77
2018-06-24T16:12:18.804Z,4.23
2018-06-24T16:14:46.880Z,3.65
2018-06-24T16:17:15.048Z,3.60
2018-06-24T16:19:43.723Z,3.27
2018-06-24T16:22:11.821Z,3.87
2018-06-24T16:24:40.192Z,3.97
2018-06-24T16:27:08.951Z,3.63
2018-06-24T16:29:37.036Z,3.50
2018-06-24T16:32:05.167Z,4.00
2018-06-24T16:34:33.281Z,3.53
2018-06-24T16:37:01.589Z,3.83
2018-06-24T16:39:30.034Z,4.10
2018-06-24T16:41:58.127Z,4.23
2018-06-24T16:44:26.232Z,3.83
2018-06-24T16:46:54.469Z,4.03
2018-06-24T16:49:22.554Z,3.17
2018-06-24T16:51:50.646Z,3.23
2018-06-24T16:54:18.728Z,4.00
2018-06-24T16:56:47.916Z,4.00
2018-06-24T16:59:16.088Z,3.90
2018-06-24T17:01:44.165Z,4.20
2018-06-24T17:04:12.288Z,4.10
2018-06-24T17:06:40.427Z,3.53
2018-06-24T17:09:09.495Z,3.83
2018-06-24T17:11:37.791Z,4.00
2018-06-24T17:14:05.936Z,3.80
2018-06-24T17:16:34.583Z,3.97
2018-06-24T17:19:03.783Z,4.22
2018-06-24T17:21:31.865Z,3.93
2018-06-24T17:23:59.949Z,3.80
2018-06-24T17:26:28.028Z,4.12
2018-06-24T17:28:56.111Z,4.73
2018-06-24T17:31:24.207Z,3.50
2018-06-24T17:33:52.620Z,5.00
2018-06-24T17:36:20.725Z,4.50
2018-06-24T17:38:49.554Z,4.12
2018-06-24T17:41:17.639Z,4.20
2018-06-24T17:43:45.751Z,4.63
2018-06-24T17:46:14.125Z,4.87
2018-06-24T17:48:42.258Z,4.40
2018-06-24T17:51:10.340Z,4.30
2018-06-24T17:53:38.432Z,4.77
2018-06-24T17:56:06.937Z,4.43
2018-06-24T17:58:35.104Z,3.73
2018-06-24T18:01:03.292Z,4.10
2018-06-24T18:03:31.633Z,3.30
2018-06-24T18:05:59.720Z,4.08
2018-06-24T18:08:27.804Z,3.30
2018-06-24T18:10:56.004Z,4.85
2018-06-24T18:13:24.089Z,3.77
2018-06-24T18:15:52.181Z,4.47
2018-06-24T18:18:20.515Z,4.30
2018-06-24T18:20:48.915Z,3.53
2018-06-24T18:23:17.013Z,4.50
2018-06-24T18:25:45.255Z,3.43
2018-06-24T18:28:13.634Z,3.77
2018-06-24T18:30:42.181Z,3.87
2018-06-24T18:33:10.374Z,3.90
2018-06-24T18:35:38.391Z,3.87
2018-06-24T18:38:06.517Z,3.50
2018-06-24T18:40:34.611Z,3.67
2018-06-24T18:43:02.697Z,3.30
2018-06-24T18:45:30.763Z,3.40
2018-06-24T18:47:58.856Z,3.90
2018-06-24T18:50:26.932Z,4.10
2018-06-24T18:52:55.017Z,3.83
2018-06-24T18:55:23.226Z,3.87
2018-06-24T18:57:51.304Z,3.47
2018-06-24T19:00:19.448Z,3.37
2018-06-24T19:02:47.648Z,3.50
2018-06-24T19:05:15.570Z,3.63
2018-06-24T19:07:43.644Z,3.87
2018-06-24T19:10:11.727Z,3.73
2018-06-24T19:12:40.017Z,3.08
2018-06-24T19:15:08.096Z,4.67
2018-06-24T19:17:36.184Z,4.57
2018-06-24T19:20:04.271Z,5.00
2018-06-24T19:22:32.359Z,3.73
2018-06-24T19:25:00.440Z,4.07
2018-06-24T19:27:28.503Z,3.33
2018-06-24T19:29:57.123Z,4.40
2018-06-24T19:32:25.510Z,5.70
2018-06-24T19:34:53.605Z,4.90
2018-06-24T19:37:21.740Z,3.90
2018-06-24T19:39:49.840Z,3.50
2018-06-24T19:42:17.971Z,3.57
2018-06-24T19:44:46.025Z,4.13
2018-06-24T19:47:14.143Z,3.60
2018-06-24T19:49:42.268Z,3.47
2018-06-24T19:52:10.339Z,3.90
2018-06-24T19:54:38.458Z,3.90
2018-06-24T19:57:06.517Z,4.50
2018-06-24T19:59:34.644Z,5.43
2018-06-24T20:02:03.157Z,5.23
2018-06-24T20:04:31.236Z,5.83
2018-06-24T20:06:59.785Z,6.50
2018-06-24T20:09:28.099Z,6.20
2018-06-24T20:11:57.000Z,6.03
2018-06-24T20:14:25.076Z,5.67
2018-06-24T20:16:53.146Z,6.03
2018-06-24T20:19:21.212Z,5.67
2018-06-24T20:21:49.299Z,6.33
2018-06-24T20:24:17.388Z,6.30
2018-06-24T20:26:45.520Z,5.80
2018-06-24T20:29:13.588Z,6.43
2018-06-24T20:31:42.058Z,6.40
2018-06-24T20:34:10.135Z,7.33
2018-06-24T20:36:38.212Z,6.80
2018-06-24T20:39:07.949Z,6.30
2018-06-24T20:41:36.124Z,6.25
2018-06-24T20:44:04.435Z,7.13
2018-06-24T20:46:32.508Z,7.65
2018-06-24T20:49:00.580Z,6.87
2018-06-24T20:51:28.667Z,6.20
2018-06-24T20:53:56.744Z,7.00
2018-06-24T20:56:24.879Z,6.97
2018-06-24T20:58:53.324Z,6.40
2018-06-24T21:01:21.402Z,5.57
2018-06-24T21:03:49.511Z,6.63
2018-06-24T21:06:17.549Z,6.40
2018-06-24T21:08:45.643Z,5.20
2018-06-24T21:11:13.768Z,5.47
2018-06-24T21:13:41.900Z,5.73
2018-06-24T21:16:10.041Z,5.50
2018-06-24T21:18:38.190Z,5.60
2018-06-24T21:21:06.254Z,5.87
2018-06-24T21:23:34.309Z,4.33
2018-06-24T21:26:02.384Z,5.03
2018-06-24T21:28:30.486Z,4.65
2018-06-24T21:30:59.735Z,4.76
2018-06-24T21:33:27.817Z,4.73
2018-06-24T21:35:55.904Z,4.60
2018-06-24T21:38:23.971Z,4.77
2018-06-24T21:40:52.064Z,5.40
2018-06-24T21:43:20.227Z,4.60
2018-06-24T21:45:48.222Z,4.60
2018-06-24T21:48:16.417Z,4.20
2018-06-24T21:50:44.481Z,3.90
2018-06-24T21:53:12.593Z,4.70
2018-06-24T21:55:40.675Z,4.80
2018-06-24T21:58:08.755Z,4.43
2018-06-24T22:02:36.924Z,4.17
2018-06-24T22:05:05.312Z,4.63
2018-06-24T22:07:34.545Z,4.40
2018-06-24T22:10:02.615Z,4.80
2018-06-24T22:12:30.708Z,4.13
2018-06-24T22:14:58.790Z,5.10
2018-06-24T22:17:27.388Z,4.67
2018-06-24T22:19:55.640Z,4.77
2018-06-24T22:22:23.739Z,4.17
2018-06-24T22:24:51.823Z,4.70
2018-06-24T22:27:19.896Z,4.00
2018-06-24T22:29:48.313Z,4.23
2018-06-24T22:32:16.590Z,4.33
2018-06-24T22:34:44.691Z,4.42
2018-06-24T22:37:13.607Z,4.33
2018-06-24T22:39:41.734Z,4.07
2018-06-24T22:42:09.836Z,4.30
2018-06-24T22:44:37.908Z,4.70
2018-06-24T22:47:06.083Z,4.33
2018-06-24T22:49:34.252Z,4.27
2018-06-24T22:52:02.329Z,4.00
2018-06-24T22:54:30.665Z,3.17
2018-06-24T22:56:58.784Z,3.80
2018-06-24T22:59:38.163Z,4.70
2018-06-24T23:02:06.301Z,3.22
2018-06-24T23:04:34.388Z,4.10
2018-06-24T23:07:02.821Z,3.93
2018-06-24T23:09:31.201Z,4.28
2018-06-24T23:11:59.321Z,3.80
2018-06-24T23:14:27.412Z,3.63
2018-06-24T23:16:55.510Z,3.43
2018-06-24T23:19:23.592Z,2.90
2018-06-24T23:21:51.729Z,3.20
2018-06-24T23:24:19.811Z,3.73
2018-06-24T23:26:47.908Z,3.30
2018-06-24T23:29:15.997Z,3.53
2018-06-24T23:31:44.132Z,3.72
2018-06-24T23:34:12.333Z,3.07
2018-06-24T23:36:41.331Z,3.10
2018-06-24T23:39:10.439Z,3.07
2018-06-24T23:41:38.513Z,3.00
2018-06-24T23:44:06.612Z,3.70
2018-06-24T23:46:34.704Z,3.90
2018-06-24T23:49:03.033Z,3.60
2018-06-24T23:51:31.123Z,3.50
2018-06-24T23:53:59.219Z,3.10
2018-06-24T23:56:27.337Z,3.10
2018-06-24T23:58:55.444Z,3.37
